createdAt,value
2022-12-14T00:01:29.098Z,21.92
2022-12-14T00:03:56.329Z,22.00
2022-12-14T00:06:26.664Z,20.35
2022-12-14T00:08:56.522Z,16.52
2022-12-14T00:11:23.520Z,20.70
2022-12-14T00:13:57.338Z,21.27
2022-12-14T00:16:25.733Z,21.15
2022-12-14T00:18:53.742Z,21.30
2022-12-14T00:21:24.153Z,20.33
2022-12-14T00:23:51.743Z,19.08
2022-12-14T00:26:24.688Z,19.85
2022-12-14T00:28:53.202Z,20.20
2022-12-14T00:31:20.733Z,21.55
2022-12-14T00:33:47.140Z,22.42
2022-12-14T00:36:16.794Z,20.15
2022-12-14T00:38:43.249Z,22.00
2022-12-14T00:41:10.879Z,21.60
2022-12-14T00:43:38.014Z,21.10
2022-12-14T00:46:04.692Z,20.42
2022-12-14T00:48:31.927Z,21.17
2022-12-14T00:50:58.662Z,21.98
2022-12-14T00:53:25.809Z,22.92
2022-12-14T00:55:52.610Z,21.98
2022-12-14T00:58:21.690Z,23.48
2022-12-14T01:00:57.705Z,21.63
2022-12-14T01:03:24.299Z,23.70
2022-12-14T01:05:51.013Z,22.13
2022-12-14T01:08:17.415Z,23.20
2022-12-14T01:10:43.834Z,24.02
2022-12-14T01:13:14.117Z,23.25
2022-12-14T01:15:40.609Z,23.48
2022-12-14T01:18:07.029Z,24.48
2022-12-14T01:20:33.438Z,22.80
2022-12-14T01:22:59.830Z,25.27
2022-12-14T01:25:26.444Z,24.70
2022-12-14T01:27:52.833Z,25.92
2022-12-14T01:30:19.559Z,24.20
2022-12-14T01:32:46.746Z,26.55
2022-12-14T01:35:13.228Z,24.83
2022-12-14T01:37:39.609Z,24.10
2022-12-14T01:40:06.466Z,24.65
2022-12-14T01:42:35.896Z,25.42
2022-12-14T01:45:03.198Z,24.88
2022-12-14T01:47:43.216Z,24.60
2022-12-14T01:50:53.998Z,23.05
2022-12-14T01:53:24.517Z,24.42
2022-12-14T01:55:54.365Z,25.60
2022-12-14T01:58:26.066Z,24.38
2022-12-14T02:00:54.996Z,24.08
2022-12-14T02:03:37.955Z,25.35
2022-12-14T02:06:09.870Z,25.52
2022-12-14T02:08:41.815Z,25.65
2022-12-14T02:11:08.217Z,24.98
2022-12-14T02:13:38.961Z,25.75
2022-12-14T02:16:05.730Z,23.83
2022-12-14T02:18:33.002Z,24.45
2022-12-14T02:21:17.985Z,25.55
2022-12-14T02:24:30.236Z,25.45
2022-12-14T02:27:30.632Z,24.70
2022-12-14T02:30:06.624Z,23.47
2022-12-14T02:32:48.087Z,23.23
2022-12-14T02:35:43.755Z,23.50
2022-12-14T02:38:22.235Z,24.40
2022-12-14T02:41:06.659Z,23.80
2022-12-14T02:43:50.828Z,24.40
2022-12-14T02:46:36.291Z,23.45
2022-12-14T02:49:34.643Z,25.25
2022-12-14T02:52:10.362Z,22.60
2022-12-14T02:55:02.980Z,25.00
2022-12-14T02:57:34.472Z,23.73
2022-12-14T03:00:04.043Z,24.25
2022-12-14T03:02:33.475Z,24.02
2022-12-14T03:04:59.952Z,24.08
2022-12-14T03:07:40.299Z,24.00
2022-12-14T03:10:21.218Z,23.37
2022-12-14T03:12:53.845Z,22.90
2022-12-14T03:15:21.773Z,23.85
2022-12-14T03:17:52.785Z,23.65
2022-12-14T03:20:25.610Z,22.60
2022-12-14T03:23:00.717Z,24.42
2022-12-14T03:25:34.588Z,23.83
2022-12-14T03:28:12.327Z,22.92
2022-12-14T03:30:59.966Z,22.70
2022-12-14T03:33:29.520Z,22.98
2022-12-14T03:36:08.986Z,24.25
2022-12-14T03:38:44.204Z,21.27
2022-12-14T03:41:28.664Z,22.52
2022-12-14T03:44:15.905Z,22.30
2022-12-14T03:46:57.742Z,22.67
2022-12-14T03:49:50.895Z,21.30
2022-12-14T03:52:23.107Z,21.52
2022-12-14T03:55:05.524Z,23.83
2022-12-14T03:57:55.450Z,22.60
2022-12-14T04:00:24.736Z,22.67
2022-12-14T04:03:31.112Z,21.92
2022-12-14T04:06:07.371Z,23.40
2022-12-14T04:08:57.289Z,23.45
2022-12-14T04:11:46.548Z,21.48
2022-12-14T04:14:39.958Z,22.70
2022-12-14T04:17:35.817Z,21.88
2022-12-14T04:20:10.706Z,21.42
2022-12-14T04:22:47.113Z,21.50
2022-12-14T04:25:38.007Z,22.98
2022-12-14T04:28:31.110Z,21.02
2022-12-14T04:31:03.074Z,23.27
2022-12-14T04:33:47.353Z,23.05
2022-12-14T04:36:39.990Z,22.77
2022-12-14T04:39:11.571Z,23.38
2022-12-14T04:41:42.778Z,22.85
2022-12-14T04:44:22.495Z,23.05
2022-12-14T04:46:50.730Z,24.17
2022-12-14T04:49:23.614Z,23.15
2022-12-14T04:52:05.227Z,22.33
2022-12-14T04:54:37.481Z,22.02
2022-12-14T04:57:19.323Z,24.48
2022-12-14T04:59:47.311Z,23.02
2022-12-14T05:02:34.115Z,23.90
2022-12-14T05:05:07.915Z,24.35
2022-12-14T05:07:49.214Z,21.52
2022-12-14T05:10:51.966Z,23.13
2022-12-14T05:13:26.271Z,24.52
2022-12-14T05:15:55.821Z,23.23
2022-12-14T05:18:23.034Z,22.85
2022-12-14T05:20:50.088Z,23.33
2022-12-14T05:23:17.202Z,23.35
2022-12-14T05:25:43.663Z,22.30
2022-12-14T05:28:11.219Z,24.20
2022-12-14T05:30:37.756Z,23.95
2022-12-14T05:33:04.552Z,23.95
2022-12-14T05:35:31.045Z,23.35
2022-12-14T05:37:57.445Z,21.88
2022-12-14T05:40:23.832Z,22.35
2022-12-14T05:42:55.447Z,24.73
2022-12-14T05:45:22.329Z,22.70
2022-12-14T05:47:48.782Z,23.95
2022-12-14T05:50:15.182Z,22.48
2022-12-14T05:52:41.573Z,24.30
2022-12-14T05:55:08.433Z,24.02
2022-12-14T05:57:34.817Z,22.80
2022-12-14T06:00:01.198Z,25.58
2022-12-14T06:02:30.821Z,23.75
2022-12-14T06:04:57.298Z,22.20
2022-12-14T06:07:27.689Z,22.35
2022-12-14T06:09:54.733Z,21.35
2022-12-14T06:12:21.180Z,23.27
2022-12-14T06:14:47.618Z,22.17
2022-12-14T06:17:14.021Z,22.40
2022-12-14T06:19:40.405Z,23.60
2022-12-14T06:22:06.825Z,22.48
2022-12-14T06:24:33.211Z,23.23
2022-12-14T06:26:59.602Z,22.90
2022-12-14T06:29:26.197Z,22.60
2022-12-14T06:31:52.652Z,25.10
2022-12-14T06:34:22.204Z,23.50
2022-12-14T06:36:51.317Z,23.00
2022-12-14T06:39:17.698Z,23.98
2022-12-14T06:41:51.774Z,25.20
2022-12-14T06:44:27.457Z,24.00
2022-12-14T06:46:54.124Z,22.35
2022-12-14T06:49:20.569Z,23.23
2022-12-14T06:51:47.004Z,23.90
2022-12-14T06:54:15.044Z,23.35
2022-12-14T06:56:42.845Z,23.10
2022-12-14T06:59:09.679Z,22.63
2022-12-14T07:01:37.415Z,22.38
2022-12-14T07:04:04.908Z,22.27
2022-12-14T07:06:39.802Z,22.48
2022-12-14T07:09:10.898Z,21.85
2022-12-14T07:11:37.301Z,22.98
2022-12-14T07:14:06.134Z,23.52
2022-12-14T07:16:34.234Z,23.77
2022-12-14T07:19:00.929Z,23.38
2022-12-14T07:21:27.447Z,23.60
2022-12-14T07:23:53.929Z,23.10
2022-12-14T07:26:26.453Z,22.27
2022-12-14T07:28:53.761Z,21.73
2022-12-14T07:31:26.724Z,21.15
2022-12-14T07:33:58.677Z,20.85
2022-12-14T07:36:30.289Z,21.92
2022-12-14T07:38:56.993Z,23.83
2022-12-14T07:41:26.326Z,24.27
2022-12-14T07:43:54.761Z,23.20
2022-12-14T07:46:24.105Z,21.52
2022-12-14T07:48:55.309Z,20.88
2022-12-14T07:51:30.084Z,22.52
2022-12-14T07:53:56.816Z,21.50
2022-12-14T07:56:25.397Z,22.58
2022-12-14T07:58:56.930Z,22.83
2022-12-14T08:01:33.330Z,21.65
2022-12-14T08:04:05.202Z,21.30
2022-12-14T08:06:32.291Z,22.65
2022-12-14T08:08:59.002Z,23.50
2022-12-14T08:11:25.696Z,21.10
2022-12-14T08:13:56.691Z,22.67
2022-12-14T08:18:52.496Z,22.73
2022-12-14T08:21:21.500Z,21.77
2022-12-14T08:23:48.885Z,23.17
2022-12-14T08:26:15.881Z,21.48
2022-12-14T08:28:42.270Z,21.65
2022-12-14T08:31:20.342Z,22.35
2022-12-14T08:33:47.609Z,20.35
2022-12-14T08:36:25.457Z,23.10
2022-12-14T08:38:57.034Z,21.75
2022-12-14T08:41:24.564Z,22.15
2022-12-14T08:43:56.699Z,21.52
2022-12-14T08:46:24.191Z,22.45
2022-12-14T08:48:52.448Z,21.83
2022-12-14T08:51:19.707Z,23.88
2022-12-14T08:53:52.002Z,22.35
2022-12-14T08:56:21.566Z,22.13
2022-12-14T08:58:51.161Z,21.67
2022-12-14T09:01:29.996Z,22.45
2022-12-14T09:04:05.949Z,22.23
2022-12-14T09:06:37.479Z,22.58
2022-12-14T09:09:13.601Z,22.75
2022-12-14T09:11:42.545Z,22.42
2022-12-14T09:14:08.942Z,22.08
2022-12-14T09:16:41.406Z,22.17
2022-12-14T09:19:07.837Z,20.45
2022-12-14T09:21:34.741Z,21.55
2022-12-14T09:24:01.606Z,21.85
2022-12-14T09:26:28.159Z,22.15
2022-12-14T09:28:56.512Z,22.08
2022-12-14T09:31:24.734Z,21.30
2022-12-14T09:33:51.603Z,24.17
2022-12-14T09:36:23.957Z,21.98
2022-12-14T09:38:52.422Z,22.17
2022-12-14T09:41:36.996Z,22.45
2022-12-14T09:44:31.241Z,20.45
2022-12-14T09:47:21.002Z,21.02
2022-12-14T09:49:53.099Z,21.83
2022-12-14T09:52:48.831Z,21.55
2022-12-14T09:55:31.851Z,22.42
2022-12-14T09:58:03.517Z,22.20
2022-12-14T10:00:37.593Z,21.50
2022-12-14T10:03:19.264Z,22.92
2022-12-14T10:06:19.092Z,20.38
2022-12-14T10:08:54.936Z,22.20
2022-12-14T10:11:40.504Z,21.58
2022-12-14T10:14:29.859Z,22.92
2022-12-14T10:17:09.458Z,21.92
2022-12-14T10:19:51.462Z,21.52
2022-12-14T10:22:38.419Z,21.80
2022-12-14T10:25:13.962Z,20.83
2022-12-14T10:30:37.883Z,19.83
2022-12-14T10:33:16.841Z,21.33
2022-12-14T10:35:50.932Z,21.20
2022-12-14T10:38:26.351Z,22.95
2022-12-14T10:41:31.430Z,23.05
2022-12-14T10:44:23.182Z,20.55
2022-12-14T10:47:11.760Z,21.98
2022-12-14T10:50:03.027Z,21.98
2022-12-14T10:52:36.998Z,23.52
2022-12-14T10:55:12.177Z,20.42
2022-12-14T10:57:38.623Z,21.17
2022-12-14T11:00:31.310Z,20.80
2022-12-14T11:02:58.221Z,21.88
2022-12-14T11:05:51.036Z,20.65
2022-12-14T11:08:41.032Z,20.48
2022-12-14T11:11:24.743Z,19.25
2022-12-14T11:13:54.378Z,21.25
2022-12-14T11:16:37.131Z,21.08
2022-12-14T11:19:06.011Z,19.58
2022-12-14T11:21:35.823Z,19.33
2022-12-14T11:24:22.245Z,20.75
2022-12-14T11:26:58.977Z,19.30
2022-12-14T11:29:34.688Z,21.67
2022-12-14T11:32:01.700Z,20.95
2022-12-14T11:34:37.674Z,20.33
2022-12-14T11:37:12.947Z,20.60
2022-12-14T11:39:42.404Z,20.77
2022-12-14T11:42:17.405Z,20.40
2022-12-14T11:44:45.945Z,21.65
2022-12-14T11:47:30.793Z,21.83
2022-12-14T11:49:57.841Z,20.85
2022-12-14T11:52:42.513Z,20.02
2022-12-14T11:55:26.486Z,20.10
2022-12-14T11:57:59.342Z,19.05
2022-12-14T12:00:30.771Z,22.23
2022-12-14T12:03:01.828Z,21.45
2022-12-14T12:05:32.625Z,19.15
2022-12-14T12:08:02.105Z,20.90
2022-12-14T12:10:49.678Z,19.45
2022-12-14T12:13:35.171Z,20.58
2022-12-14T12:16:05.898Z,20.02
2022-12-14T12:18:45.813Z,21.35
2022-12-14T12:21:18.482Z,18.80
2022-12-14T12:23:58.620Z,17.67
2022-12-14T12:26:32.332Z,14.40
2022-12-14T12:29:36.458Z,19.63
2022-12-14T12:32:23.966Z,19.95
2022-12-14T12:35:11.279Z,20.88
2022-12-14T12:37:56.990Z,21.25
2022-12-14T12:40:32.012Z,21.10
2022-12-14T12:43:12.830Z,21.08
2022-12-14T12:45:46.532Z,19.95
2022-12-14T12:48:28.186Z,19.98
2022-12-14T12:51:00.820Z,21.02
2022-12-14T12:53:33.481Z,21.10
2022-12-14T12:56:14.630Z,20.73
2022-12-14T13:01:24.190Z,21.08
2022-12-14T13:03:55.277Z,19.50
2022-12-14T13:06:35.852Z,20.13
2022-12-14T13:09:17.395Z,20.63
2022-12-14T13:11:45.694Z,18.98
2022-12-14T13:14:39.813Z,19.70
2022-12-14T13:17:14.897Z,19.15
2022-12-14T13:19:50.568Z,19.88
2022-12-14T13:22:24.862Z,20.98
2022-12-14T13:24:58.851Z,20.25
2022-12-14T13:27:42.042Z,18.17
2022-12-14T13:30:43.075Z,19.45
2022-12-14T13:33:33.298Z,19.30
2022-12-14T13:36:28.059Z,17.90
2022-12-14T13:39:18.253Z,19.15
2022-12-14T13:41:56.351Z,18.75
2022-12-14T13:45:01.295Z,18.67
2022-12-14T13:48:03.586Z,18.40
2022-12-14T13:50:36.603Z,18.65
2022-12-14T13:53:27.631Z,19.05
2022-12-14T13:56:00.007Z,18.47
2022-12-14T13:58:44.474Z,20.23
2022-12-14T14:01:35.123Z,18.13
2022-12-14T14:04:10.411Z,19.23
2022-12-14T14:06:50.549Z,17.90
2022-12-14T14:09:26.325Z,18.60
2022-12-14T14:11:57.143Z,18.00
2022-12-14T14:14:33.466Z,19.65
2022-12-14T14:17:08.568Z,19.45
2022-12-14T14:19:39.508Z,18.77
2022-12-14T14:22:25.832Z,20.00
2022-12-14T14:25:00.920Z,20.35
2022-12-14T14:27:37.126Z,18.35
2022-12-14T14:30:26.387Z,19.08
2022-12-14T14:32:54.175Z,17.33
2022-12-14T14:35:37.733Z,19.73
2022-12-14T14:38:23.330Z,20.25
2022-12-14T14:43:49.624Z,21.83
2022-12-14T14:46:22.273Z,18.95
2022-12-14T14:48:54.537Z,19.25
2022-12-14T14:51:28.951Z,18.92
2022-12-14T14:54:56.096Z,19.48
2022-12-14T14:57:35.055Z,19.38
2022-12-14T15:00:05.006Z,20.10
2022-12-14T15:02:39.202Z,18.55
2022-12-14T15:05:33.200Z,21.08
2022-12-14T15:07:55.094Z,19.23
2022-12-14T15:10:29.741Z,18.70
2022-12-14T15:13:03.196Z,18.75
2022-12-14T15:15:37.211Z,18.90
2022-12-14T15:18:30.460Z,19.95
2022-12-14T15:21:07.838Z,21.05
2022-12-14T15:23:45.337Z,21.45
2022-12-14T15:26:26.413Z,19.73
2022-12-14T15:28:58.168Z,22.52
2022-12-14T15:31:33.775Z,24.08
2022-12-14T15:34:01.831Z,24.27
2022-12-14T15:36:32.124Z,22.15
2022-12-14T15:38:58.899Z,21.00
2022-12-14T15:41:28.780Z,20.50
2022-12-14T15:44:00.321Z,19.83
2022-12-14T15:46:40.229Z,19.45
2022-12-14T15:49:10.614Z,19.00
2022-12-14T15:51:43.372Z,19.15
2022-12-14T15:54:20.718Z,19.10
2022-12-14T15:56:51.025Z,18.85
2022-12-14T15:59:32.430Z,18.65
2022-12-14T16:02:29.065Z,18.90
2022-12-14T16:05:01.375Z,19.85
2022-12-14T16:07:39.206Z,19.67
2022-12-14T16:10:22.717Z,17.08
2022-12-14T16:12:52.493Z,17.55
2022-12-14T16:15:22.307Z,18.55
2022-12-14T16:17:53.653Z,17.70
2022-12-14T16:20:30.261Z,19.75
2022-12-14T16:23:01.439Z,18.90
2022-12-14T16:25:30.107Z,18.38
2022-12-14T16:27:56.832Z,19.23
2022-12-14T16:30:33.319Z,18.98
2022-12-14T16:33:05.948Z,20.42
2022-12-14T16:35:35.262Z,18.58
2022-12-14T16:38:16.218Z,20.45
2022-12-14T16:40:48.536Z,19.08
2022-12-14T16:43:30.782Z,19.85
2022-12-14T16:46:00.430Z,20.90
2022-12-14T16:48:28.739Z,22.88
2022-12-14T16:51:32.976Z,20.40
2022-12-14T16:54:23.959Z,22.23
2022-12-14T16:56:58.176Z,22.90
2022-12-14T16:59:55.078Z,23.50
2022-12-14T17:02:30.448Z,23.92
2022-12-14T17:04:59.935Z,25.52
2022-12-14T17:07:29.617Z,26.38
2022-12-14T17:09:56.515Z,24.85
2022-12-14T17:12:24.933Z,24.55
2022-12-14T17:14:52.222Z,25.20
2022-12-14T17:17:26.790Z,24.30
2022-12-14T17:19:55.906Z,25.40
2022-12-14T17:22:26.364Z,24.98
2022-12-14T17:24:53.032Z,27.48
2022-12-14T17:27:26.656Z,27.33
2022-12-14T17:29:57.240Z,30.48
2022-12-14T17:32:27.679Z,29.13
2022-12-14T17:34:54.101Z,26.13
2022-12-14T17:37:23.757Z,28.00
2022-12-14T17:39:50.867Z,33.58
2022-12-14T17:42:20.434Z,29.05
2022-12-14T17:45:05.036Z,29.48
2022-12-14T17:47:31.535Z,29.15
2022-12-14T17:49:57.992Z,30.85
2022-12-14T17:52:28.930Z,30.23
2022-12-14T17:57:23.565Z,28.65
2022-12-14T18:00:10.270Z,25.92
2022-12-14T18:02:37.732Z,26.10
2022-12-14T18:05:04.577Z,25.85
2022-12-14T18:07:30.966Z,25.27
2022-12-14T18:09:57.646Z,26.00
2022-12-14T18:12:25.761Z,25.00
2022-12-14T18:14:52.410Z,24.65
2022-12-14T18:17:18.942Z,24.27
2022-12-14T18:19:45.354Z,24.00
2022-12-14T18:22:14.389Z,25.35
2022-12-14T18:24:40.857Z,27.85
2022-12-14T18:27:07.377Z,26.25
2022-12-14T18:29:33.810Z,25.08
2022-12-14T18:32:00.310Z,23.70
2022-12-14T18:34:26.806Z,26.13
2022-12-14T18:36:53.206Z,25.10
2022-12-14T18:39:19.814Z,23.77
2022-12-14T18:41:46.200Z,24.55
2022-12-14T18:44:12.607Z,24.67
2022-12-14T18:46:39.541Z,23.35
2022-12-14T18:49:06.691Z,23.85
2022-12-14T18:51:36.180Z,24.10
2022-12-14T18:54:03.269Z,24.20
2022-12-14T18:56:29.708Z,25.02
2022-12-14T18:58:56.290Z,24.33
2022-12-14T19:01:24.677Z,24.48
2022-12-14T19:03:51.734Z,25.40
2022-12-14T19:09:09.965Z,23.52
2022-12-14T19:11:41.971Z,25.42
2022-12-14T19:14:08.872Z,23.88
2022-12-14T19:16:35.366Z,23.42
2022-12-14T19:19:01.858Z,23.83
2022-12-14T19:21:31.801Z,23.55
2022-12-14T19:23:59.743Z,23.77
2022-12-14T19:26:28.086Z,24.17
2022-12-14T19:28:54.478Z,24.80
2022-12-14T19:31:20.942Z,25.50
2022-12-14T19:33:47.402Z,24.00
2022-12-14T19:36:13.795Z,26.75
2022-12-14T19:38:40.227Z,26.70
2022-12-14T19:41:10.722Z,25.17
2022-12-14T19:43:37.416Z,25.67
2022-12-14T19:46:08.905Z,25.02
2022-12-14T19:48:35.387Z,26.05
2022-12-14T19:51:10.641Z,23.83
2022-12-14T19:53:37.761Z,23.42
2022-12-14T19:56:04.616Z,24.70
2022-12-14T19:58:31.022Z,24.52
2022-12-14T20:00:58.370Z,24.02
2022-12-14T20:03:24.907Z,24.52
2022-12-14T20:05:55.813Z,23.52
2022-12-14T20:08:23.427Z,24.27
2022-12-14T20:10:52.632Z,23.75
2022-12-14T20:13:19.792Z,25.50
2022-12-14T20:15:50.715Z,26.40
2022-12-14T20:20:43.936Z,24.00
2022-12-14T20:23:17.262Z,24.08
2022-12-14T20:25:43.682Z,25.17
2022-12-14T20:28:14.315Z,25.88
2022-12-14T20:30:45.480Z,26.58
2022-12-14T20:33:12.646Z,24.98
2022-12-14T20:35:39.139Z,23.35
2022-12-14T20:38:05.533Z,24.50
2022-12-14T20:40:38.007Z,25.85
2022-12-14T20:43:05.151Z,26.35
2022-12-14T20:45:31.557Z,27.80
2022-12-14T20:47:57.946Z,26.55
2022-12-14T20:50:24.354Z,25.80
2022-12-14T20:52:50.734Z,25.98
2022-12-14T20:55:17.263Z,24.52
2022-12-14T20:57:43.658Z,27.40
2022-12-14T21:00:10.535Z,25.73
2022-12-14T21:02:37.085Z,26.80
2022-12-14T21:05:03.985Z,26.48
2022-12-14T21:07:31.704Z,27.33
2022-12-14T21:09:58.449Z,26.15
2022-12-14T21:12:25.709Z,26.42
2022-12-14T21:14:54.260Z,26.05
2022-12-14T21:17:23.213Z,27.25
2022-12-14T21:19:50.354Z,27.10
2022-12-14T21:22:26.025Z,28.48
2022-12-14T21:25:08.288Z,26.85
2022-12-14T21:27:38.240Z,26.83
2022-12-14T21:30:07.202Z,28.23
2022-12-14T21:32:35.547Z,28.02
2022-12-14T21:35:01.996Z,27.02
2022-12-14T21:37:28.378Z,28.73
2022-12-14T21:39:55.741Z,27.65
2022-12-14T21:42:23.633Z,29.23
2022-12-14T21:44:51.939Z,26.73
2022-12-14T21:47:24.670Z,26.42
2022-12-14T21:49:51.299Z,27.80
2022-12-14T21:52:20.393Z,27.52
2022-12-14T21:54:46.779Z,27.38
2022-12-14T21:57:37.265Z,29.33
2022-12-14T22:00:05.500Z,20.05
2022-12-14T22:02:39.608Z,28.05
2022-12-14T22:05:06.631Z,29.45
2022-12-14T22:07:34.202Z,29.38
2022-12-14T22:10:00.692Z,29.15
2022-12-14T22:12:27.328Z,29.08
2022-12-14T22:14:53.739Z,26.98
2022-12-14T22:17:20.154Z,28.67
2022-12-14T22:19:46.617Z,29.02
2022-12-14T22:22:15.290Z,27.30
2022-12-14T22:24:41.951Z,29.52
2022-12-14T22:27:10.003Z,28.88
2022-12-14T22:29:36.397Z,27.17
2022-12-14T22:32:02.917Z,28.08
2022-12-14T22:34:29.411Z,27.05
2022-12-14T22:36:56.013Z,27.17
2022-12-14T22:39:22.636Z,27.35
2022-12-14T22:41:49.488Z,27.50
2022-12-14T22:44:15.883Z,28.90
2022-12-14T22:46:42.344Z,28.10
2022-12-14T22:49:14.265Z,27.25
2022-12-14T22:51:41.094Z,27.05
2022-12-14T22:54:07.489Z,26.00
2022-12-14T22:56:48.131Z,27.55
2022-12-14T22:59:23.338Z,26.95
2022-12-14T23:01:50.550Z,27.13
2022-12-14T23:04:17.461Z,28.20
2022-12-14T23:06:44.867Z,28.08
2022-12-14T23:09:30.603Z,26.40
2022-12-14T23:12:21.262Z,27.20
2022-12-14T23:15:06.770Z,26.60
2022-12-14T23:17:51.592Z,25.40
2022-12-14T23:20:36.862Z,26.98
2022-12-14T23:23:26.069Z,30.27
2022-12-14T23:26:12.016Z,27.88
2022-12-14T23:28:57.591Z,27.55
2022-12-14T23:31:42.970Z,29.05
2022-12-14T23:34:28.460Z,27.40
2022-12-14T23:37:18.216Z,28.35
2022-12-14T23:40:05.632Z,31.20
2022-12-14T23:42:50.566Z,29.13
2022-12-14T23:45:35.568Z,27.90
2022-12-14T23:48:20.761Z,26.38
2022-12-14T23:51:06.062Z,28.23
2022-12-14T23:53:51.211Z,27.08
2022-12-14T23:56:36.291Z,26.73
2022-12-14T23:59:24.864Z,28.17
